createdAt,value
2018-09-08T00:00:16.641Z,16.80
2018-09-08T00:02:45.247Z,16.70
2018-09-08T00:05:13.858Z,16.70
2018-09-08T00:07:42.493Z,16.60
2018-09-08T00:10:11.513Z,16.60
2018-09-08T00:12:40.081Z,16.50
2018-09-08T00:15:14.041Z,16.50
2018-09-08T00:17:47.988Z,16.30
2018-09-08T00:20:21.832Z,16.30
2018-09-08T00:22:55.674Z,16.30
2018-09-08T00:25:29.595Z,16.20
2018-09-08T00:28:11.801Z,16.10
2018-09-08T00:30:40.409Z,15.80
2018-09-08T00:33:08.981Z,15.80
2018-09-08T00:35:37.605Z,15.80
2018-09-08T00:38:06.317Z,15.70
2018-09-08T00:40:34.918Z,15.70
2018-09-08T00:43:03.584Z,15.60
2018-09-08T00:45:32.153Z,15.70
2018-09-08T00:48:01.552Z,15.70
2018-09-08T00:50:30.189Z,15.80
2018-09-08T00:52:58.915Z,15.80
2018-09-08T00:55:27.525Z,15.80
2018-09-08T00:57:56.101Z,15.70
2018-09-08T01:00:24.692Z,15.80
2018-09-08T01:02:53.625Z,15.80
2018-09-08T01:05:22.271Z,15.80
2018-09-08T01:07:50.845Z,15.70
2018-09-08T01:10:20.261Z,15.70
2018-09-08T01:12:48.921Z,15.60
2018-09-08T01:15:17.519Z,15.60
2018-09-08T01:17:46.080Z,15.50
2018-09-08T01:20:14.749Z,15.40
2018-09-08T01:22:43.350Z,15.40
2018-09-08T01:25:11.973Z,15.20
2018-09-08T01:27:40.593Z,15.20
2018-09-08T01:30:09.232Z,15.00
2018-09-08T01:32:37.797Z,14.90
2018-09-08T01:35:06.463Z,14.80
2018-09-08T01:37:35.055Z,14.80
2018-09-08T01:40:03.702Z,14.50
2018-09-08T01:42:32.341Z,14.50
2018-09-08T01:45:00.920Z,14.30
2018-09-08T01:47:29.683Z,14.20
2018-09-08T01:49:58.395Z,14.20
2018-09-08T01:52:26.968Z,14.20
2018-09-08T01:54:55.561Z,14.20
2018-09-08T01:57:24.125Z,14.20
2018-09-08T01:59:52.824Z,14.10
2018-09-08T02:02:21.519Z,14.00
2018-09-08T02:04:50.157Z,13.90
2018-09-08T02:07:18.720Z,13.80
2018-09-08T02:09:47.326Z,13.70
2018-09-08T02:12:15.966Z,13.70
2018-09-08T02:14:44.591Z,13.60
2018-09-08T02:17:13.177Z,13.50
2018-09-08T02:19:41.787Z,13.40
2018-09-08T02:22:10.351Z,13.40
2018-09-08T02:24:38.996Z,13.40
2018-09-08T02:27:07.580Z,13.40
2018-09-08T02:29:36.201Z,13.30
2018-09-08T02:32:04.757Z,13.10
2018-09-08T02:34:33.594Z,13.10
2018-09-08T02:37:02.802Z,13.00
2018-09-08T02:39:31.405Z,12.90
2018-09-08T02:41:59.994Z,12.90
2018-09-08T02:44:28.572Z,12.90
2018-09-08T02:46:57.164Z,12.80
2018-09-08T02:50:35.529Z,12.60
2018-09-08T02:53:03.548Z,12.60
2018-09-08T02:55:31.532Z,12.60
2018-09-08T02:57:59.281Z,12.60
2018-09-08T03:00:27.265Z,12.50
2018-09-08T03:02:54.928Z,12.50
2018-09-08T03:05:22.609Z,12.50
2018-09-08T03:07:50.224Z,12.20
2018-09-08T03:10:18.553Z,12.20
2018-09-08T03:12:45.952Z,12.10
2018-09-08T03:15:13.359Z,12.10
2018-09-08T03:17:40.779Z,12.10
2018-09-08T03:20:08.185Z,12.10
2018-09-08T03:22:35.609Z,12.20
2018-09-08T03:25:03.013Z,12.10
2018-09-08T03:27:30.439Z,12.00
2018-09-08T03:29:57.845Z,11.90
2018-09-08T03:32:25.276Z,12.00
2018-09-08T03:34:52.674Z,11.90
2018-09-08T03:37:20.919Z,11.80
2018-09-08T03:39:48.338Z,11.80
2018-09-08T03:42:15.771Z,11.90
2018-09-08T03:44:43.189Z,11.80
2018-09-08T03:47:10.616Z,11.80
2018-09-08T03:49:38.012Z,11.70
2018-09-08T03:52:05.429Z,11.70
2018-09-08T03:54:32.834Z,11.70
2018-09-08T03:57:00.356Z,11.70
2018-09-08T03:59:27.839Z,11.60
2018-09-08T04:01:55.260Z,11.60
2018-09-08T04:04:23.820Z,11.60
2018-09-08T04:06:52.644Z,11.50
2018-09-08T04:09:21.217Z,11.50
2018-09-08T04:11:49.810Z,11.50
2018-09-08T04:14:18.393Z,11.40
2018-09-08T04:16:47.042Z,11.40
2018-09-08T04:19:15.613Z,11.40
2018-09-08T04:21:44.215Z,11.40
2018-09-08T04:24:12.791Z,11.20
2018-09-08T04:26:41.379Z,11.20
2018-09-08T04:29:10.610Z,11.30
2018-09-08T04:31:39.297Z,11.20
2018-09-08T04:34:07.898Z,11.20
2018-09-08T04:36:36.503Z,11.20
2018-09-08T04:39:07.950Z,11.10
2018-09-08T04:41:36.678Z,11.00
2018-09-08T04:44:05.289Z,11.00
2018-09-08T04:46:34.080Z,10.90
2018-09-08T04:49:02.689Z,10.90
2018-09-08T04:51:31.270Z,10.90
2018-09-08T04:53:59.889Z,10.80
2018-09-08T04:56:28.474Z,10.70
2018-09-08T04:58:57.068Z,10.80
2018-09-08T05:01:25.646Z,10.80
2018-09-08T05:03:54.288Z,10.80
2018-09-08T05:06:22.866Z,10.70
2018-09-08T05:08:51.566Z,10.70
2018-09-08T05:11:20.145Z,10.60
2018-09-08T05:13:48.730Z,10.50
2018-09-08T05:16:17.290Z,10.40
2018-09-08T05:18:45.893Z,10.50
2018-09-08T05:21:14.452Z,10.50
2018-09-08T05:23:43.050Z,10.40
2018-09-08T05:26:11.722Z,10.40
2018-09-08T05:28:40.409Z,10.40
2018-09-08T05:31:08.916Z,10.40
2018-09-08T05:33:37.657Z,10.40
2018-09-08T05:36:06.297Z,10.50
2018-09-08T05:38:34.875Z,10.50
2018-09-08T05:41:03.472Z,10.50
2018-09-08T05:43:32.061Z,10.50
2018-09-08T05:46:00.688Z,10.50
2018-09-08T05:48:29.281Z,10.50
2018-09-08T05:50:57.847Z,10.50
2018-09-08T05:53:26.448Z,10.50
2018-09-08T05:55:55.055Z,10.50
2018-09-08T05:58:23.684Z,10.60
2018-09-08T06:00:52.250Z,10.60
2018-09-08T06:03:20.881Z,10.50
2018-09-08T06:05:49.473Z,10.50
2018-09-08T06:08:18.053Z,10.70
2018-09-08T06:10:46.626Z,11.30
2018-09-08T06:13:15.247Z,11.90
2018-09-08T06:15:43.817Z,12.60
2018-09-08T06:18:12.456Z,13.20
2018-09-08T06:20:41.052Z,13.60
2018-09-08T06:23:09.986Z,14.40
2018-09-08T06:25:38.836Z,15.20
2018-09-08T06:28:08.069Z,16.00
2018-09-08T06:30:36.645Z,16.50
2018-09-08T06:33:05.489Z,16.90
2018-09-08T06:35:34.087Z,17.20
2018-09-08T06:38:02.678Z,17.90
2018-09-08T06:40:31.281Z,18.30
2018-09-08T06:42:59.825Z,19.00
2018-09-08T06:45:28.449Z,19.50
2018-09-08T06:47:57.029Z,19.80
2018-09-08T06:50:25.658Z,20.40
2018-09-08T06:52:54.618Z,20.90
2018-09-08T06:55:23.223Z,21.40
2018-09-08T06:57:51.820Z,21.80
2018-09-08T07:00:20.461Z,22.20
2018-09-08T07:02:49.037Z,22.50
2018-09-08T07:05:17.620Z,23.00
2018-09-08T07:07:46.208Z,23.40
2018-09-08T07:10:15.036Z,23.70
2018-09-08T07:12:43.661Z,23.90
2018-09-08T07:15:12.378Z,24.50
2018-09-08T07:17:40.901Z,25.00
2018-09-08T07:20:09.514Z,25.30
2018-09-08T07:22:38.097Z,25.70
2018-09-08T07:25:07.837Z,25.80
2018-09-08T07:27:36.399Z,26.30
2018-09-08T07:30:05.075Z,26.50
2018-09-08T07:32:33.637Z,27.10
2018-09-08T07:35:02.228Z,27.30
2018-09-08T07:37:30.887Z,27.70
2018-09-08T07:39:59.477Z,28.00
2018-09-08T07:42:28.043Z,28.20
2018-09-08T07:44:56.633Z,28.70
2018-09-08T07:47:25.221Z,29.10
2018-09-08T07:49:53.813Z,29.60
2018-09-08T07:52:23.372Z,29.40
2018-09-08T07:54:51.979Z,29.30
2018-09-08T07:57:20.536Z,30.00
2018-09-08T07:59:49.119Z,30.20
2018-09-08T08:02:17.694Z,30.40
2018-09-08T08:04:46.290Z,30.80
2018-09-08T08:07:15.745Z,30.80
2018-09-08T08:09:45.584Z,30.60
2018-09-08T08:12:14.550Z,30.90
2018-09-08T08:14:43.152Z,31.20
2018-09-08T08:17:11.745Z,31.80
2018-09-08T08:19:40.353Z,32.00
2018-09-08T08:22:08.916Z,32.20
2018-09-08T08:24:37.510Z,32.30
2018-09-08T08:27:06.172Z,32.80
2018-09-08T08:29:34.810Z,31.80
2018-09-08T08:32:03.686Z,31.60
2018-09-08T08:34:32.301Z,31.90
2018-09-08T08:37:00.944Z,32.30
2018-09-08T08:39:29.665Z,31.70
2018-09-08T08:41:58.285Z,32.10
2018-09-08T08:44:26.844Z,32.10
2018-09-08T08:46:55.462Z,33.20
2018-09-08T08:49:24.050Z,33.50
2018-09-08T08:52:03.790Z,33.80
2018-09-08T08:54:50.231Z,33.50
2018-09-08T08:57:18.802Z,33.60
2018-09-08T08:59:47.372Z,34.20
2018-09-08T09:02:15.962Z,34.60
2018-09-08T09:04:44.541Z,34.80
2018-09-08T09:07:14.542Z,35.10
2018-09-08T09:09:43.904Z,35.30
2018-09-08T09:12:12.486Z,35.40
2018-09-08T09:14:41.257Z,35.10
2018-09-08T09:17:09.660Z,34.30
2018-09-08T09:19:49.650Z,34.60
2018-09-08T09:22:29.789Z,33.90
2018-09-08T09:25:03.663Z,33.30
2018-09-08T09:27:33.393Z,33.40
2018-09-08T09:30:02.577Z,33.00
2018-09-08T09:32:31.833Z,33.00
2018-09-08T09:35:00.405Z,34.00
2018-09-08T09:37:29.125Z,33.90
2018-09-08T09:39:58.453Z,34.00
2018-09-08T09:42:27.055Z,33.70
2018-09-08T09:44:55.670Z,34.60
2018-09-08T09:47:24.274Z,34.80
2018-09-08T09:49:52.852Z,34.80
2018-09-08T09:52:21.700Z,34.80
2018-09-08T09:54:50.273Z,35.20
2018-09-08T09:57:18.875Z,35.30
2018-09-08T09:59:47.471Z,35.50
2018-09-08T10:02:46.423Z,35.90
2018-09-08T10:05:16.829Z,36.40
2018-09-08T10:07:45.736Z,35.30
2018-09-08T10:10:16.662Z,35.60
2018-09-08T10:12:45.345Z,35.70
2018-09-08T10:15:13.929Z,36.20
2018-09-08T10:17:43.444Z,36.50
2018-09-08T10:20:13.962Z,36.60
2018-09-08T10:22:42.617Z,36.70
2018-09-08T10:25:16.028Z,36.30
2018-09-08T10:27:45.253Z,35.70
2018-09-08T10:30:14.377Z,34.00
2018-09-08T10:32:43.856Z,33.60
2018-09-08T10:35:12.612Z,35.10
2018-09-08T10:37:42.913Z,34.80
2018-09-08T10:40:12.573Z,34.00
2018-09-08T10:42:41.394Z,33.10
2018-09-08T10:45:10.205Z,33.00
2018-09-08T10:47:39.046Z,32.60
2018-09-08T10:50:08.220Z,32.00
2018-09-08T10:52:41.528Z,31.50
2018-09-08T10:55:10.138Z,31.90
2018-09-08T10:57:38.725Z,31.90
2018-09-08T11:00:07.973Z,31.80
2018-09-08T11:02:36.790Z,31.40
2018-09-08T11:05:05.270Z,31.20
2018-09-08T11:07:33.889Z,30.90
2018-09-08T11:10:02.486Z,30.80
2018-09-08T11:12:31.431Z,30.60
2018-09-08T11:14:59.990Z,30.30
2018-09-08T11:17:28.572Z,29.60
2018-09-08T11:19:57.170Z,29.70
2018-09-08T11:22:25.815Z,29.50
2018-09-08T11:24:54.382Z,29.20
2018-09-08T11:27:23.030Z,29.00
2018-09-08T11:29:51.580Z,28.80
2018-09-08T11:32:21.383Z,28.20
2018-09-08T11:34:49.953Z,27.40
2018-09-08T11:37:18.575Z,27.50
2018-09-08T11:39:47.183Z,27.40
2018-09-08T11:42:15.782Z,27.40
2018-09-08T11:44:44.375Z,27.30
2018-09-08T11:47:12.979Z,27.40
2018-09-08T11:49:41.616Z,27.20
2018-09-08T11:52:10.161Z,26.80
2018-09-08T11:54:38.759Z,26.80
2018-09-08T11:57:07.417Z,26.50
2018-09-08T11:59:36.068Z,26.30
2018-09-08T12:02:05.059Z,26.00
2018-09-08T12:04:33.740Z,26.00
2018-09-08T12:07:02.352Z,26.20
2018-09-08T12:09:30.943Z,26.10
2018-09-08T12:11:59.513Z,26.10
2018-09-08T12:14:28.103Z,26.00
2018-09-08T12:16:56.698Z,25.80
2018-09-08T12:19:25.313Z,25.70
2018-09-08T12:21:53.876Z,25.70
2018-09-08T12:24:22.476Z,25.60
2018-09-08T12:26:51.045Z,25.30
2018-09-08T12:29:19.647Z,25.30
2018-09-08T12:31:48.216Z,25.50
2018-09-08T12:34:16.834Z,25.50
2018-09-08T12:36:45.427Z,25.50
2018-09-08T12:39:14.024Z,25.60
2018-09-08T12:41:42.605Z,25.50
2018-09-08T12:44:11.207Z,25.60
2018-09-08T12:46:39.777Z,25.50
2018-09-08T12:49:08.367Z,25.60
2018-09-08T12:51:36.919Z,25.60
2018-09-08T12:54:05.530Z,25.50
2018-09-08T12:56:34.143Z,25.50
2018-09-08T13:01:48.724Z,25.60
2018-09-08T13:04:17.448Z,25.70
2018-09-08T13:06:46.703Z,25.70
2018-09-08T13:09:16.508Z,25.70
2018-09-08T13:11:48.503Z,25.80
2018-09-08T13:14:17.177Z,25.70
2018-09-08T13:16:45.720Z,25.50
2018-09-08T13:19:14.326Z,25.40
2018-09-08T13:21:42.927Z,25.30
2018-09-08T13:24:11.527Z,25.30
2018-09-08T13:26:40.123Z,25.40
2018-09-08T13:29:09.292Z,25.30
2018-09-08T13:31:39.713Z,25.20
2018-09-08T13:34:08.324Z,25.20
2018-09-08T13:36:36.931Z,25.20
2018-09-08T13:39:07.061Z,25.20
2018-09-08T13:41:35.642Z,25.20
2018-09-08T13:44:04.271Z,25.10
2018-09-08T13:46:32.832Z,25.20
2018-09-08T13:49:01.427Z,25.20
2018-09-08T13:51:29.996Z,25.20
2018-09-08T13:53:58.629Z,25.30
2018-09-08T13:56:27.230Z,25.30
2018-09-08T13:58:55.834Z,25.20
2018-09-08T14:01:24.396Z,25.10
2018-09-08T14:03:53.002Z,25.00
2018-09-08T14:06:22.017Z,24.80
2018-09-08T14:08:50.841Z,24.70
2018-09-08T14:11:19.424Z,24.70
2018-09-08T14:13:48.029Z,24.70
2018-09-08T14:16:16.639Z,24.80
2018-09-08T14:18:45.209Z,24.80
2018-09-08T14:21:13.829Z,24.80
2018-09-08T14:23:42.530Z,24.80
2018-09-08T14:26:11.140Z,24.70
2018-09-08T14:28:39.749Z,24.60
2018-09-08T14:31:08.637Z,24.60
2018-09-08T14:33:37.210Z,24.50
2018-09-08T14:36:05.890Z,24.50
2018-09-08T14:38:34.463Z,24.50
2018-09-08T14:41:03.058Z,24.40
2018-09-08T14:43:31.637Z,24.50
2018-09-08T14:46:00.251Z,24.50
2018-09-08T14:48:28.909Z,24.50
2018-09-08T14:50:57.513Z,24.30
2018-09-08T14:53:26.094Z,24.30
2018-09-08T14:55:54.681Z,24.20
2018-09-08T14:58:23.263Z,24.20
2018-09-08T15:00:52.063Z,24.10
2018-09-08T15:03:20.646Z,24.20
2018-09-08T15:05:49.237Z,24.20
2018-09-08T15:08:17.814Z,24.20
2018-09-08T15:10:46.430Z,24.20
2018-09-08T15:13:15.074Z,24.20
2018-09-08T15:15:43.679Z,24.10
2018-09-08T15:18:12.245Z,24.10
2018-09-08T15:20:40.824Z,23.90
2018-09-08T15:23:09.430Z,24.00
2018-09-08T15:25:38.021Z,24.00
2018-09-08T15:28:06.620Z,24.00
2018-09-08T15:30:35.197Z,24.00
2018-09-08T15:33:03.980Z,24.00
2018-09-08T15:35:32.561Z,24.00
2018-09-08T15:38:01.145Z,23.90
2018-09-08T15:40:29.726Z,23.70
2018-09-08T15:42:58.280Z,23.80
2018-09-08T15:45:26.929Z,23.90
2018-09-08T15:47:55.485Z,23.90
2018-09-08T15:50:24.084Z,23.90
2018-09-08T15:52:52.674Z,23.90
2018-09-08T15:55:21.265Z,23.80
2018-09-08T15:57:49.861Z,23.80
2018-09-08T16:00:18.454Z,23.70
2018-09-08T16:02:47.046Z,23.70
2018-09-08T16:05:15.618Z,23.70
2018-09-08T16:07:44.211Z,23.70
2018-09-08T16:10:12.833Z,23.60
2018-09-08T16:12:41.417Z,23.60
2018-09-08T16:15:10.056Z,23.50
2018-09-08T16:17:38.652Z,23.40
2018-09-08T16:20:07.234Z,23.40
2018-09-08T16:22:35.845Z,23.30
2018-09-08T16:25:04.435Z,23.10
2018-09-08T16:27:33.051Z,23.30
2018-09-08T16:30:01.620Z,23.20
2018-09-08T16:32:30.218Z,23.10
2018-09-08T16:34:58.814Z,23.10
2018-09-08T16:37:27.567Z,23.10
2018-09-08T16:39:56.246Z,23.10
2018-09-08T16:42:24.851Z,23.10
2018-09-08T16:44:53.454Z,23.00
2018-09-08T16:47:22.062Z,23.00
2018-09-08T16:49:50.968Z,23.00
2018-09-08T16:52:19.756Z,22.90
2018-09-08T16:54:48.320Z,22.90
2018-09-08T16:57:17.556Z,22.90
2018-09-08T16:59:46.118Z,22.80
2018-09-08T17:02:14.714Z,22.70
2018-09-08T17:04:43.313Z,22.70
2018-09-08T17:07:11.947Z,22.50
2018-09-08T17:09:40.536Z,22.40
2018-09-08T17:12:09.132Z,22.30
2018-09-08T17:14:37.695Z,22.20
2018-09-08T17:17:06.314Z,22.20
2018-09-08T17:19:34.872Z,22.10
2018-09-08T17:22:03.498Z,21.80
2018-09-08T17:24:32.099Z,21.70
2018-09-08T17:27:00.883Z,21.50
2018-09-08T17:29:29.500Z,21.40
2018-09-08T17:31:58.091Z,21.10
2018-09-08T17:34:26.680Z,20.80
2018-09-08T17:36:55.371Z,20.70
2018-09-08T17:39:23.963Z,20.60
2018-09-08T17:41:54.189Z,20.40
2018-09-08T17:44:22.882Z,20.20
2018-09-08T17:46:54.438Z,20.20
2018-09-08T17:49:26.447Z,20.10
2018-09-08T17:51:55.161Z,19.90
2018-09-08T17:54:23.749Z,19.70
2018-09-08T17:56:54.160Z,19.60
2018-09-08T17:59:22.817Z,19.50
2018-09-08T18:01:51.462Z,19.50
2018-09-08T18:04:20.122Z,19.20
2018-09-08T18:06:48.694Z,19.10
2018-09-08T18:09:17.289Z,19.00
2018-09-08T18:11:45.930Z,19.00
2018-09-08T18:14:14.848Z,18.70
2018-09-08T18:16:43.655Z,18.60
2018-09-08T18:19:12.258Z,18.40
2018-09-08T18:21:44.749Z,18.10
2018-09-08T18:24:16.312Z,18.00
2018-09-08T18:26:45.372Z,18.10
2018-09-08T18:29:14.141Z,17.90
2018-09-08T18:31:42.722Z,17.80
2018-09-08T18:34:12.072Z,17.70
2018-09-08T18:36:40.728Z,17.70
2018-09-08T18:39:09.364Z,17.70
2018-09-08T18:41:37.970Z,17.60
2018-09-08T18:44:06.584Z,17.50
2018-09-08T18:46:35.144Z,17.30
2018-09-08T18:49:03.742Z,17.10
2018-09-08T18:51:32.321Z,17.20
2018-09-08T18:54:00.927Z,17.10
2018-09-08T18:56:29.496Z,17.10
2018-09-08T18:58:58.151Z,17.00
2018-09-08T19:01:26.749Z,16.90
2018-09-08T19:03:55.332Z,16.80
2018-09-08T19:06:23.945Z,16.60
2018-09-08T19:08:52.516Z,16.70
2018-09-08T19:11:21.177Z,16.60
2018-09-08T19:13:49.783Z,16.40
2018-09-08T19:16:18.381Z,16.30
2018-09-08T19:18:46.974Z,16.30
2018-09-08T19:21:15.585Z,16.20
2018-09-08T19:23:44.137Z,16.10
2018-09-08T19:26:12.735Z,16.00
2018-09-08T19:28:41.314Z,15.80
2018-09-08T19:31:09.942Z,15.90
2018-09-08T19:33:38.517Z,15.90
2018-09-08T19:36:07.433Z,15.80
2018-09-08T19:38:36.021Z,15.70
2018-09-08T19:41:04.626Z,15.60
2018-09-08T19:43:33.205Z,15.50
2018-09-08T19:46:06.000Z,15.50
2018-09-08T19:48:34.580Z,15.40
2018-09-08T19:51:03.206Z,15.30
2018-09-08T19:53:37.145Z,15.20
2018-09-08T19:56:05.742Z,15.20
2018-09-08T19:58:39.669Z,15.20
2018-09-08T20:01:08.263Z,15.00
2018-09-08T20:03:36.856Z,14.90
2018-09-08T20:06:05.453Z,15.00
2018-09-08T20:08:35.661Z,15.00
2018-09-08T20:11:04.478Z,14.80
2018-09-08T20:13:33.181Z,14.90
2018-09-08T20:16:01.778Z,14.90
2018-09-08T20:18:30.373Z,14.60
2018-09-08T20:20:58.995Z,14.60
2018-09-08T20:23:27.563Z,14.60
2018-09-08T20:25:56.166Z,14.60
2018-09-08T20:28:24.739Z,14.60
2018-09-08T20:30:53.337Z,14.60
2018-09-08T20:33:21.947Z,14.60
2018-09-08T20:35:50.554Z,14.40
2018-09-08T20:38:19.566Z,14.30
2018-09-08T20:40:48.136Z,14.30
2018-09-08T20:43:16.737Z,14.30
2018-09-08T20:45:45.313Z,14.20
2018-09-08T20:48:13.927Z,14.20
2018-09-08T20:50:42.756Z,14.20
2018-09-08T20:53:11.346Z,14.10
2018-09-08T20:55:39.931Z,14.10
2018-09-08T20:58:08.594Z,14.10
2018-09-08T21:00:37.157Z,14.00
2018-09-08T21:03:06.013Z,14.10
2018-09-08T21:05:34.581Z,14.00
2018-09-08T21:08:03.192Z,13.80
2018-09-08T21:10:31.778Z,13.80
2018-09-08T21:13:00.445Z,13.60
2018-09-08T21:15:29.020Z,13.70
2018-09-08T21:17:57.630Z,13.70
2018-09-08T21:20:26.221Z,13.70
2018-09-08T21:22:54.818Z,13.60
2018-09-08T21:25:23.389Z,13.60
2018-09-08T21:27:52.141Z,13.60
2018-09-08T21:30:21.082Z,13.60
2018-09-08T21:32:49.670Z,13.50
2018-09-08T21:35:18.229Z,13.50
2018-09-08T21:37:46.835Z,13.50
2018-09-08T21:40:15.409Z,13.50
2018-09-08T21:42:43.999Z,13.50
2018-09-08T21:45:12.614Z,13.50
2018-09-08T21:47:41.196Z,13.40
2018-09-08T21:50:09.791Z,13.40
2018-09-08T21:52:38.389Z,13.40
2018-09-08T21:55:07.047Z,13.30
2018-09-08T21:57:35.656Z,13.20
2018-09-08T22:00:04.856Z,13.30
2018-09-08T22:02:33.425Z,13.30
2018-09-08T22:05:02.025Z,13.20
2018-09-08T22:07:30.765Z,13.10
2018-09-08T22:09:59.364Z,13.10
2018-09-08T22:12:27.938Z,13.10
2018-09-08T22:14:56.614Z,13.20
2018-09-08T22:17:25.206Z,13.10
2018-09-08T22:19:53.809Z,13.10
2018-09-08T22:22:22.369Z,13.10
2018-09-08T22:24:50.973Z,13.00
2018-09-08T22:27:19.563Z,13.00
2018-09-08T22:29:48.221Z,12.90
2018-09-08T22:32:16.805Z,13.00
2018-09-08T22:34:45.401Z,13.00
2018-09-08T22:37:13.997Z,13.00
2018-09-08T22:39:42.585Z,13.00
2018-09-08T22:42:11.170Z,13.00
2018-09-08T22:44:39.768Z,13.00
2018-09-08T22:47:08.353Z,12.90
2018-09-08T22:49:36.971Z,12.90
2018-09-08T22:52:05.644Z,12.80
2018-09-08T22:54:34.240Z,12.80
2018-09-08T22:57:02.822Z,12.80
2018-09-08T22:59:31.448Z,12.80
2018-09-08T23:02:00.064Z,12.80
2018-09-08T23:04:29.347Z,12.80
2018-09-08T23:06:57.913Z,12.70
2018-09-08T23:09:26.492Z,12.80
2018-09-08T23:11:55.056Z,12.70
2018-09-08T23:14:24.291Z,12.80
2018-09-08T23:16:52.844Z,12.80
2018-09-08T23:19:21.416Z,12.70
2018-09-08T23:21:49.970Z,12.60
2018-09-08T23:24:18.568Z,12.70
2018-09-08T23:26:47.130Z,12.70
2018-09-08T23:29:15.745Z,12.80
2018-09-08T23:31:44.355Z,12.80
2018-09-08T23:34:12.968Z,12.70
2018-09-08T23:36:41.581Z,12.70
2018-09-08T23:39:10.189Z,12.60
2018-09-08T23:41:38.777Z,12.60
2018-09-08T23:44:07.358Z,12.70
2018-09-08T23:46:35.948Z,12.70
2018-09-08T23:49:04.532Z,12.60
2018-09-08T23:51:33.121Z,12.60
2018-09-08T23:54:01.676Z,12.60
2018-09-08T23:56:30.285Z,12.60
2018-09-08T23:58:59.580Z,12.60
